Time;durP1;ratioP1;P1;durP2;ratioP2;P2;SDS_P1;SDS_P2;PMS_P1;PMS_P2;Temp;Humidity;BMP_temperature;BMP_pressure;BME280_temperature;BME280_humidity;BME280_pressure;Samples;Min_cycle;Max_cycle;Signal;HPM_P1;HPM_P2
2023/04/24 00:00:17;;;;;;;3.28;1.48;;;;;;;20.79;53.46;100159.69;5032735;28;20052;-56
2023/04/24 00:02:46;;;;;;;3.80;1.50;;;;;;;20.79;53.62;100146.22;5032403;28;20045;-56
2023/04/24 00:05:15;;;;;;;2.92;1.33;;;;;;;20.80;53.49;100134.47;5032911;28;20049;-56
2023/04/24 00:07:44;;;;;;;2.85;1.60;;;;;;;20.79;53.50;100123.88;5032720;28;20472;-56
2023/04/24 00:10:12;;;;;;;4.47;2.55;;;;;;;20.79;53.71;100126.56;5031265;28;20061;-58
2023/04/24 00:12:39;;;;;;;3.00;1.70;;;;;;;20.79;53.69;100126.56;5032523;28;20045;-58
2023/04/24 00:15:07;;;;;;;3.63;1.77;;;;;;;20.78;53.71;100133.75;5032966;28;20045;-58
2023/04/24 00:17:35;;;;;;;3.53;1.70;;;;;;;20.79;53.78;100143.53;5032155;28;20399;-58
2023/04/24 00:20:04;;;;;;;3.00;1.80;;;;;;;20.79;53.56;100148.09;5031965;28;20072;-57
2023/04/24 00:22:31;;;;;;;3.22;1.40;;;;;;;20.79;53.68;100140.84;5032572;28;20037;-56
2023/04/24 00:24:59;;;;;;;3.70;1.77;;;;;;;20.78;53.64;100136.44;5032574;28;20361;-56
2023/04/24 00:27:26;;;;;;;3.75;1.70;;;;;;;20.78;53.61;100133.75;5032543;28;20053;-57
2023/04/24 00:29:53;;;;;;;5.07;1.63;;;;;;;20.78;53.36;100127.53;5032821;28;20048;-57
2023/04/24 00:32:21;;;;;;;3.15;1.83;;;;;;;20.78;53.53;100124.84;5031422;28;20529;-57
2023/04/24 00:34:48;;;;;;;3.95;1.70;;;;;;;20.77;53.46;100118.63;5048549;28;20049;-56
2023/04/24 00:37:16;;;;;;;1.98;1.10;;;;;;;20.78;53.68;100127.53;5052729;28;20045;-56
2023/04/24 00:39:44;;;;;;;5.38;1.73;;;;;;;20.78;53.40;100123.00;5053896;28;20045;-56
2023/04/24 00:42:12;;;;;;;3.20;1.65;;;;;;;20.78;53.50;100127.53;5054352;28;20041;-56
2023/04/24 00:44:39;;;;;;;4.28;1.90;;;;;;;20.77;53.49;100121.31;5055033;28;20411;-56
2023/04/24 00:47:07;;;;;;;3.20;1.90;;;;;;;20.77;53.54;100117.78;5054550;28;20049;-56
2023/04/24 00:49:35;;;;;;;3.72;1.75;;;;;;;20.76;53.49;100119.63;5054669;28;20068;-58
2023/04/24 00:52:07;;;;;;;3.13;1.63;;;;;;;20.77;53.47;100115.09;5056181;28;20049;-58
2023/04/24 00:54:35;;;;;;;2.83;1.43;;;;;;;20.77;53.45;100115.09;5054934;28;20049;-58
2023/04/24 00:57:03;;;;;;;2.70;1.70;;;;;;;20.77;53.47;100110.56;5055886;28;20045;-58
2023/04/24 00:59:31;;;;;;;3.83;1.40;;;;;;;20.76;53.48;100111.56;5056110;28;20053;-58
2023/04/24 01:01:59;;;;;;;2.63;1.40;;;;;;;20.76;53.42;100111.56;5054516;28;20049;-58
2023/04/24 01:04:27;;;;;;;3.35;1.83;;;;;;;20.76;53.56;100111.56;5054838;28;20052;-58
2023/04/24 01:06:55;;;;;;;4.05;1.55;;;;;;;20.76;53.40;100116.94;5055955;28;20052;-58
2023/04/24 01:09:24;;;;;;;2.65;1.27;;;;;;;20.76;53.56;100118.81;5053790;28;20053;-58
2023/04/24 01:11:51;;;;;;;3.53;1.63;;;;;;;20.77;53.48;100133.94;5053618;28;20049;-58
2023/04/24 01:14:19;;;;;;;3.75;1.50;;;;;;;20.75;53.67;100126.03;5054055;28;20068;-58
2023/04/24 01:16:49;;;;;;;5.43;1.73;;;;;;;20.77;53.54;100123.16;5055287;28;20048;-58
2023/04/24 01:19:18;;;;;;;4.78;1.80;;;;;;;20.76;53.62;100126.88;5045611;28;20053;-58
2023/04/24 01:21:50;;;;;;;7.25;1.90;;;;;;;20.76;53.70;100119.63;5034740;28;20041;-58
2023/04/24 01:24:19;;;;;;;4.38;1.80;;;;;;;20.74;53.59;100119.81;5035820;28;20041;-58
2023/04/24 01:26:47;;;;;;;3.13;1.52;;;;;;;20.76;53.58;100108.88;5035268;28;20041;-58
2023/04/24 01:29:14;;;;;;;5.20;1.70;;;;;;;20.75;53.45;100107.19;5035295;28;20049;-57
2023/04/24 01:31:43;;;;;;;5.65;2.03;;;;;;;20.75;53.67;100107.19;5034031;28;20076;-56
2023/04/24 01:34:10;;;;;;;3.55;1.67;;;;;;;20.76;53.69;100116.13;5035529;28;20041;-56
2023/04/24 01:36:38;;;;;;;6.25;2.00;;;;;;;20.74;53.73;100108.19;5034187;28;20057;-56
2023/04/24 01:39:06;;;;;;;4.10;1.50;;;;;;;20.74;53.79;100111.75;5034315;28;20050;-58
2023/04/24 01:41:34;;;;;;;5.28;1.98;;;;;;;20.74;53.81;100100.09;5034263;28;20049;-58
2023/04/24 01:44:02;;;;;;;2.85;1.77;;;;;;;20.74;54.00;100098.28;5034207;28;20041;-58
2023/04/24 01:46:31;;;;;;;3.17;1.80;;;;;;;20.74;53.90;100092.03;5034428;28;20049;-58
2023/04/24 01:48:59;;;;;;;3.88;1.63;;;;;;;20.73;53.85;100079.59;5034292;28;20053;-58
2023/04/24 01:51:27;;;;;;;3.13;1.80;;;;;;;20.74;53.89;100081.28;5033032;28;20057;-58
2023/04/24 01:53:56;;;;;;;2.72;1.38;;;;;;;20.73;53.89;100087.66;5034810;28;20045;-58
2023/04/24 01:56:25;;;;;;;3.78;1.77;;;;;;;20.73;53.93;100098.44;5033817;28;20056;-58
2023/04/24 01:58:54;;;;;;;4.53;1.80;;;;;;;20.73;54.01;100080.44;5033285;28;20053;-57
2023/04/24 02:01:23;;;;;;;5.18;2.08;;;;;;;20.73;53.93;100079.59;5033183;28;20054;-56
2023/04/24 02:03:51;;;;;;;3.03;1.90;;;;;;;20.73;54.00;100071.53;5034931;28;20045;-56
2023/04/24 02:06:19;;;;;;;2.58;1.60;;;;;;;20.71;54.14;100055.56;5033645;28;20049;-56
2023/04/24 02:08:46;;;;;;;4.25;1.50;;;;;;;20.72;54.23;100046.50;5034467;28;20053;-56
2023/04/24 02:11:14;;;;;;;2.50;1.45;;;;;;;20.72;54.19;100065.31;5033475;28;20504;-56
2023/04/24 02:13:41;;;;;;;3.13;1.60;;;;;;;20.72;54.30;100069.84;5032722;28;20057;-56
2023/04/24 02:16:08;;;;;;;4.50;2.17;;;;;;;20.72;54.32;100073.38;5034281;28;20045;-57
2023/04/24 02:18:36;;;;;;;3.22;2.17;;;;;;;20.72;54.29;100073.38;5034745;28;20052;-56
2023/04/24 02:21:03;;;;;;;2.53;1.50;;;;;;;20.71;54.32;100071.69;5033007;28;20419;-57
2023/04/24 02:23:30;;;;;;;2.53;1.63;;;;;;;20.71;54.26;100071.69;5034118;28;20045;-56
2023/04/24 02:25:57;;;;;;;3.10;1.60;;;;;;;20.71;54.33;100070.88;5034476;28;20072;-56
2023/04/24 02:28:25;;;;;;;4.53;1.67;;;;;;;20.71;54.35;100060.94;5034224;28;20046;-56
2023/04/24 02:30:52;;;;;;;4.80;1.52;;;;;;;20.71;54.44;100052.88;5034105;28;20503;-56
2023/04/24 02:33:22;;;;;;;3.63;2.13;;;;;;;20.71;54.60;100055.56;5033289;28;20500;-56
2023/04/24 02:35:49;;;;;;;4.47;1.67;;;;;;;20.70;54.61;100048.50;5050131;28;20066;-56
2023/04/24 02:38:16;;;;;;;3.25;1.60;;;;;;;20.71;54.61;100041.28;5053263;28;20056;-56
2023/04/24 02:40:44;;;;;;;4.70;1.88;;;;;;;20.72;54.79;100051.03;5053697;28;20049;-57
2023/04/24 02:43:11;;;;;;;3.00;1.60;;;;;;;20.72;54.74;100059.09;5054052;28;20048;-57
2023/04/24 02:45:39;;;;;;;4.15;1.77;;;;;;;20.72;54.70;100053.72;5052270;28;20060;-56
2023/04/24 02:48:06;;;;;;;3.30;1.85;;;;;;;20.71;54.53;100055.56;5052345;28;20044;-56
2023/04/24 02:50:34;;;;;;;4.32;2.00;;;;;;;20.72;54.60;100048.34;5053182;28;20068;-56
2023/04/24 02:53:02;;;;;;;3.40;1.70;;;;;;;20.72;54.66;100051.03;5053687;28;20057;-57
2023/04/24 02:55:29;;;;;;;3.80;1.98;;;;;;;20.72;54.58;100051.03;5053292;28;20052;-56
2023/04/24 02:57:56;;;;;;;3.70;1.70;;;;;;;20.72;54.50;100062.63;5052104;28;20056;-56
2023/04/24 03:00:24;;;;;;;3.22;1.58;;;;;;;20.72;54.63;100067.16;5051726;28;20052;-56
2023/04/24 03:02:51;;;;;;;4.22;1.65;;;;;;;20.72;54.77;100067.16;5053085;28;20414;-56
2023/04/24 03:05:19;;;;;;;2.53;1.58;;;;;;;20.72;54.70;100068.00;5052253;28;20379;-56
2023/04/24 03:07:46;;;;;;;2.72;1.30;;;;;;;20.72;54.58;100054.56;5053417;28;20356;-56
2023/04/24 03:10:14;;;;;;;3.47;1.70;;;;;;;20.71;54.63;100057.41;5051526;28;20064;-56
2023/04/24 03:12:41;;;;;;;4.90;1.80;;;;;;;20.72;54.75;100051.03;5053551;28;20049;-56
2023/04/24 03:15:09;;;;;;;5.25;2.15;;;;;;;20.72;54.64;100033.03;5051976;28;20052;-57
2023/04/24 03:17:37;;;;;;;3.95;1.55;;;;;;;20.71;54.59;100047.50;5051987;28;20430;-56
2023/04/24 03:20:08;;;;;;;6.93;1.73;;;;;;;20.72;54.83;100043.78;5035198;28;20049;-58
2023/04/24 03:22:35;;;;;;;3.25;1.60;;;;;;;20.71;54.77;100049.34;5031843;28;20034;-59
2023/04/24 03:25:08;;;;;;;4.07;1.77;;;;;;;20.72;54.76;100051.03;5032159;28;20487;-58
2023/04/24 03:27:35;;;;;;;2.88;1.58;;;;;;;20.70;54.82;100051.19;5032104;28;20411;-58
2023/04/24 03:30:08;;;;;;;3.50;2.42;;;;;;;20.70;54.95;100048.50;5033828;28;20063;-58
2023/04/24 03:32:51;;;;;;;3.72;1.77;;;;;;;20.70;54.83;100045.81;5032139;28;20495;-58
2023/04/24 03:35:23;;;;;;;5.32;1.83;;;;;;;20.70;54.91;100048.50;5031869;28;20392;-58
2023/04/24 03:37:51;;;;;;;3.92;1.42;;;;;;;20.71;54.92;100050.19;5032303;28;20053;-58
2023/04/24 03:40:39;;;;;;;3.28;1.60;;;;;;;20.70;55.00;100050.31;5031761;28;20056;-56
2023/04/24 03:43:18;;;;;;;3.40;2.00;;;;;;;20.70;54.91;100044.94;5032066;28;20061;-56
2023/04/24 03:45:46;;;;;;;3.33;1.83;;;;;;;20.70;54.77;100043.13;5032260;28;20053;-56
2023/04/24 03:48:14;;;;;;;2.80;1.73;;;;;;;20.70;54.97;100047.63;5031627;28;20053;-56
2023/04/24 03:50:42;;;;;;;2.47;1.65;;;;;;;20.69;54.95;100054.88;5032117;28;20060;-57
2023/04/24 03:53:11;;;;;;;4.63;1.63;;;;;;;20.70;54.90;100050.31;5032106;28;20049;-56
2023/04/24 03:55:41;;;;;;;5.53;2.38;;;;;;;20.69;55.00;100041.41;5031126;28;20446;-57
2023/04/24 03:58:10;;;;;;;2.50;1.67;;;;;;;20.69;54.93;100052.19;5031639;28;20049;-56
2023/04/24 04:00:37;;;;;;;4.43;1.98;;;;;;;20.69;54.99;100054.88;5032275;28;20053;-57
2023/04/24 04:03:23;;;;;;;2.95;1.83;;;;;;;20.69;54.99;100052.19;5039682;28;20052;-57
2023/04/24 04:05:51;;;;;;;4.15;1.73;;;;;;;20.68;55.28;100053.19;5031465;28;20057;-56
2023/04/24 04:08:18;;;;;;;3.03;2.00;;;;;;;20.70;55.12;100061.09;5031661;28;20056;-56
2023/04/24 04:10:46;;;;;;;4.22;1.73;;;;;;;20.68;55.22;100063.09;5031770;28;20053;-57
2023/04/24 04:13:13;;;;;;;6.35;2.35;;;;;;;20.69;55.10;100060.25;5032259;28;20049;-57
2023/04/24 04:15:41;;;;;;;4.43;2.13;;;;;;;20.70;55.31;100047.63;5034314;28;20049;-56
2023/04/24 04:18:08;;;;;;;2.58;1.60;;;;;;;20.71;55.18;100054.72;5035267;28;20057;-56
2023/04/24 04:20:36;;;;;;;3.63;2.13;;;;;;;20.72;55.32;100069.84;5035054;28;20068;-58
2023/04/24 04:23:04;;;;;;;3.45;2.05;;;;;;;20.72;55.18;100076.06;5033428;28;20054;-58
2023/04/24 04:25:44;;;;;;;4.63;2.28;;;;;;;20.72;55.72;100065.31;5035886;28;20050;-58
2023/04/24 04:28:12;;;;;;;3.58;2.10;;;;;;;20.72;55.70;100077.94;5034868;28;20049;-58
2023/04/24 04:30:39;;;;;;;3.15;1.92;;;;;;;20.72;55.69;100073.38;5035275;28;20053;-58
2023/04/24 04:33:08;;;;;;;4.93;2.33;;;;;;;20.72;55.90;100089.53;5019477;28;20049;-57
2023/04/24 04:35:36;;;;;;;5.03;2.38;;;;;;;20.72;55.70;100091.38;5043668;28;20041;-57
2023/04/24 04:38:04;;;;;;;5.82;2.50;;;;;;;20.71;55.62;100092.38;5054844;28;20055;-57
2023/04/24 04:40:56;;;;;;;3.90;2.80;;;;;;;20.70;55.78;100091.53;5054992;28;20057;-56
2023/04/24 04:43:25;;;;;;;5.13;2.92;;;;;;;20.71;55.76;100103.16;5055252;28;20055;-56
2023/04/24 04:45:55;;;;;;;4.80;2.72;;;;;;;20.70;55.79;100113.06;5054651;28;20053;-56
2023/04/24 04:48:42;;;;;;;4.05;2.70;;;;;;;20.70;55.67;100115.75;5062853;28;20102;-56
2023/04/24 04:51:10;;;;;;;4.05;2.70;;;;;;;20.70;55.63;100107.69;5054827;28;20057;-56
2023/04/24 04:53:37;;;;;;;5.47;2.83;;;;;;;20.69;55.74;100103.28;5053857;28;20045;-57
2023/04/24 04:56:05;;;;;;;4.75;3.13;;;;;;;20.68;55.61;100088.16;5054553;28;20052;-56
2023/04/24 04:58:41;;;;;;;4.65;3.15;;;;;;;20.70;55.74;100085.28;5055271;28;20052;-56
2023/04/24 05:01:12;;;;;;;5.05;2.72;;;;;;;20.68;55.60;100077.41;5055893;28;20048;-57
2023/04/24 05:03:42;;;;;;;3.80;2.65;;;;;;;20.68;55.83;100066.63;5054390;28;20407;-58
2023/04/24 05:06:12;;;;;;;3.40;2.90;;;;;;;20.68;55.69;100071.19;5055186;28;20048;-58
2023/04/24 05:08:43;;;;;;;5.75;3.05;;;;;;;20.67;55.68;100064.97;5054272;28;20057;-58
2023/04/24 05:11:29;;;;;;;3.30;2.40;;;;;;;20.67;55.77;100074.88;5053418;28;20052;-56
2023/04/24 05:13:57;;;;;;;4.82;2.70;;;;;;;20.68;55.65;100095.38;5053988;28;20045;-56
2023/04/24 05:16:33;;;;;;;4.78;2.92;;;;;;;20.67;55.83;100099.91;5054388;28;20056;-56
2023/04/24 05:19:01;;;;;;;3.95;2.78;;;;;;;20.67;55.80;100110.69;5054045;28;20387;-57
2023/04/24 05:21:33;;;;;;;3.45;2.38;;;;;;;20.67;55.84;100121.44;5038398;28;20056;-58
2023/04/24 05:24:01;;;;;;;3.05;2.28;;;;;;;20.67;55.90;100120.59;5039244;28;20492;-58
2023/04/24 05:26:43;;;;;;;4.28;2.65;;;;;;;20.67;55.83;100124.13;5033011;28;20503;-58
2023/04/24 05:29:12;;;;;;;4.60;2.58;;;;;;;20.67;56.01;100132.19;5034302;28;20057;-58
2023/04/24 05:31:39;;;;;;;4.03;2.83;;;;;;;20.67;55.79;100136.75;5033731;28;20384;-58
2023/04/24 05:34:08;;;;;;;4.20;3.35;;;;;;;20.67;55.96;100147.50;5033875;28;20045;-58
2023/04/24 05:36:39;;;;;;;4.93;3.47;;;;;;;20.66;55.92;100152.03;5034246;28;20061;-58
2023/04/24 05:39:06;;;;;;;3.90;3.20;;;;;;;20.66;55.89;100154.72;5034077;28;20049;-58
2023/04/24 05:41:34;;;;;;;4.95;3.13;;;;;;;20.66;56.04;100149.34;5035697;28;20049;-58
2023/04/24 05:44:02;;;;;;;4.95;3.13;;;;;;;20.66;55.86;100146.66;5035473;28;20053;-58
2023/04/24 05:46:29;;;;;;;5.53;3.60;;;;;;;20.66;56.07;100143.09;5034034;28;20618;-58
2023/04/24 05:48:57;;;;;;;3.70;2.95;;;;;;;20.66;56.13;100135.91;5033714;28;20507;-57
2023/04/24 05:51:24;;;;;;;4.18;3.10;;;;;;;20.66;56.03;100137.72;5033987;28;20053;-57
2023/04/24 05:53:52;;;;;;;4.78;3.08;;;;;;;20.66;56.01;100127.81;5034736;28;20046;-58
2023/04/24 05:56:20;;;;;;;4.68;3.28;;;;;;;20.66;56.05;100118.88;5034694;28;20037;-58
2023/04/24 05:58:49;;;;;;;5.32;3.42;;;;;;;20.66;56.04;100117.06;5033968;28;20061;-58
2023/04/24 06:01:18;;;;;;;4.88;2.97;;;;;;;20.65;55.95;100103.75;5033647;28;20057;-57
2023/04/24 06:03:50;;;;;;;5.07;3.20;;;;;;;20.66;56.00;100095.56;5033209;28;20057;-58
2023/04/24 06:06:19;;;;;;;4.15;3.20;;;;;;;20.65;55.99;100088.47;5033428;28;20053;-58
2023/04/24 06:08:46;;;;;;;4.50;3.22;;;;;;;20.65;55.95;100083.09;5032834;28;20060;-57
2023/04/24 06:11:14;;;;;;;5.13;3.55;;;;;;;20.65;56.09;100072.31;5034987;28;20050;-58
2023/04/24 06:13:41;;;;;;;4.20;2.60;;;;;;;20.66;56.11;100078.53;5034675;28;20061;-58
2023/04/24 06:16:27;;;;;;;5.45;3.35;;;;;;;20.65;56.10;100079.56;5041101;28;20053;-58
2023/04/24 06:19:01;;;;;;;3.80;2.92;;;;;;;20.65;56.13;100085.78;5033370;28;20503;-57
2023/04/24 06:21:29;;;;;;;4.28;2.95;;;;;;;20.64;56.12;100084.09;5033728;28;20053;-59
2023/04/24 06:23:57;;;;;;;5.63;3.30;;;;;;;20.65;56.10;100091.16;5032232;28;20053;-57
2023/04/24 06:26:26;;;;;;;3.92;2.75;;;;;;;20.65;56.12;100084.94;5034072;28;20056;-58
2023/04/24 06:28:54;;;;;;;5.30;3.67;;;;;;;20.66;56.16;100092.00;5034656;28;20041;-57
2023/04/24 06:31:22;;;;;;;3.83;3.00;;;;;;;20.66;55.88;100097.38;5033246;28;20057;-56
2023/04/24 06:33:49;;;;;;;5.00;3.15;;;;;;;20.65;56.11;100093.84;5034167;28;20053;-56
2023/04/24 06:36:17;;;;;;;5.25;3.28;;;;;;;20.65;56.17;100084.94;5041987;28;20356;-56
2023/04/24 06:38:45;;;;;;;5.38;3.35;;;;;;;20.64;56.11;100085.94;5053742;28;20067;-56
2023/04/24 06:41:12;;;;;;;5.53;4.68;;;;;;;20.65;56.10;100087.63;5053640;28;20075;-53
2023/04/24 06:43:40;;;;;;;7.47;6.70;;;;;;;20.60;56.09;100081.88;5054097;28;20052;-54
2023/04/24 06:46:07;;;;;;;9.88;7.25;;;;;;;20.54;56.37;100096.81;5053842;28;20045;-53
2023/04/24 06:48:34;;;;;;;12.18;8.75;;;;;;;20.47;56.21;100104.63;5053874;28;20064;-54
2023/04/24 06:51:02;;;;;;;10.98;8.65;;;;;;;20.42;56.59;100114.16;5053975;28;20075;-53
2023/04/24 06:53:29;;;;;;;10.07;7.50;;;;;;;20.36;56.63;100122.84;5053418;28;20406;-55
2023/04/24 06:55:56;;;;;;;8.15;7.35;;;;;;;20.32;56.59;100129.53;5052924;28;20052;-55
2023/04/24 06:58:25;;;;;;;9.75;7.68;;;;;;;20.28;56.85;100138.91;5053075;28;20487;-55
2023/04/24 07:00:52;;;;;;;7.72;6.43;;;;;;;20.24;57.14;100139.22;5062660;28;20458;-59
2023/04/24 07:03:20;;;;;;;8.32;6.05;;;;;;;20.23;57.03;100140.22;5073458;28;20063;-60
2023/04/24 07:05:49;;;;;;;10.70;7.70;;;;;;;20.23;56.86;100134.00;5072264;28;20513;-59
2023/04/24 07:08:17;;;;;;;11.30;7.53;;;;;;;20.22;56.74;100141.22;5073419;28;20079;-59
2023/04/24 07:10:45;;;;;;;11.88;8.57;;;;;;;20.21;56.54;100138.66;5071428;28;20075;-55
2023/04/24 07:13:12;;;;;;;11.35;7.97;;;;;;;20.17;56.64;100135.44;5053076;28;20056;-55
2023/04/24 07:15:41;;;;;;;12.30;8.48;;;;;;;20.15;56.77;100134.75;5053064;28;20053;-54
2023/04/24 07:18:08;;;;;;;9.02;7.60;;;;;;;20.15;56.93;100128.56;5053002;28;20049;-55
2023/04/24 07:20:36;;;;;;;10.20;7.85;;;;;;;20.18;56.88;100137.16;5059756;28;20040;-54
2023/04/24 07:23:03;;;;;;;11.85;8.40;;;;;;;20.22;56.99;100129.63;5073005;28;20051;-54
2023/04/24 07:25:31;;;;;;;15.23;9.20;;;;;;;20.25;56.94;100140.91;5050783;28;20043;-56
2023/04/24 07:27:59;;;;;;;13.48;8.93;;;;;;;20.28;57.18;100145.13;5049941;28;20051;-55
2023/04/24 07:30:28;;;;;;;12.90;8.82;;;;;;;20.32;56.84;100142.97;5054200;28;20055;-55
2023/04/24 07:32:56;;;;;;;12.25;8.68;;;;;;;20.35;56.94;100143.50;5052646;28;20052;-54
2023/04/24 07:35:25;;;;;;;10.00;8.13;;;;;;;20.39;57.06;100146.72;5052740;28;20061;-53
2023/04/24 07:37:53;;;;;;;12.02;9.48;;;;;;;20.40;56.96;100137.66;5051921;28;20049;-53
2023/04/24 07:40:21;;;;;;;10.57;9.02;;;;;;;20.40;57.10;100129.59;5052859;28;20045;-58
2023/04/24 07:42:49;;;;;;;10.35;8.70;;;;;;;20.38;57.14;100131.63;5052746;28;20047;-58
2023/04/24 07:45:16;;;;;;;10.80;8.18;;;;;;;20.39;57.09;100125.22;5053039;28;20045;-59
2023/04/24 07:47:45;;;;;;;9.98;8.95;;;;;;;20.41;56.98;100123.22;5052873;28;20056;-59
2023/04/24 07:50:13;;;;;;;11.55;9.35;;;;;;;20.44;57.04;100118.38;5051192;28;20064;-58
2023/04/24 07:52:41;;;;;;;10.73;8.00;;;;;;;20.48;57.06;100118.91;5051697;28;20052;-59
2023/04/24 07:55:08;;;;;;;9.20;7.13;;;;;;;20.52;57.05;100125.69;5053269;28;20513;-59
2023/04/24 07:57:36;;;;;;;15.20;8.18;;;;;;;20.55;56.90;100130.75;5072854;28;20045;-59
2023/04/24 08:00:05;;;;;;;15.07;9.25;;;;;;;20.58;56.98;100138.53;5071304;28;20055;-54
2023/04/24 08:02:37;;;;;;;11.45;9.38;;;;;;;20.58;57.20;100146.59;5038132;28;20057;-54
2023/04/24 08:05:06;;;;;;;10.63;8.65;;;;;;;20.59;56.86;100147.44;5032505;28;20056;-54
2023/04/24 08:07:35;;;;;;;9.18;6.97;;;;;;;20.57;56.06;100144.88;5032670;28;20045;-54
2023/04/24 08:10:02;;;;;;;10.02;7.35;;;;;;;20.56;55.86;100145.88;5032590;28;20053;-58
2023/04/24 08:12:29;;;;;;;8.90;6.53;;;;;;;20.56;55.71;100148.56;5052247;28;20041;-59
2023/04/24 08:14:57;;;;;;;8.20;5.53;;;;;;;20.57;55.53;100149.41;5052199;28;20534;-59
2023/04/24 08:17:24;;;;;;;10.45;5.85;;;;;;;20.58;55.47;100145.72;5051705;28;20052;-59
2023/04/24 08:19:58;;;;;;;9.57;7.05;;;;;;;20.58;55.50;100165.41;5052110;28;20048;-59
2023/04/24 08:22:26;;;;;;;5.50;4.80;;;;;;;20.58;55.57;100162.72;5052703;28;20052;-59
2023/04/24 08:24:54;;;;;;;9.32;6.20;;;;;;;20.58;55.36;100168.09;5052150;28;20049;-59
2023/04/24 08:27:21;;;;;;;6.78;5.50;;;;;;;20.57;55.24;100162.88;5037954;28;20041;-59
2023/04/24 08:29:49;;;;;;;7.38;6.03;;;;;;;20.55;55.29;100172.94;5032861;28;20049;-58
2023/04/24 08:32:17;;;;;;;6.97;5.25;;;;;;;20.54;55.10;100173.94;5048709;28;20056;-58
2023/04/24 08:34:45;;;;;;;6.60;5.20;;;;;;;20.52;54.92;100171.41;5052518;28;20049;-58
2023/04/24 08:37:15;;;;;;;7.22;5.18;;;;;;;20.51;54.62;100175.09;5051953;28;20051;-58
2023/04/24 08:39:42;;;;;;;8.25;4.82;;;;;;;20.50;54.60;100176.09;5052432;28;20084;-58
2023/04/24 08:42:11;;;;;;;8.27;4.93;;;;;;;20.50;54.30;100176.09;5067384;28;20049;-59
2023/04/24 08:44:39;;;;;;;5.45;4.28;;;;;;;20.49;54.21;100169.84;5072033;28;20494;-60
2023/04/24 08:47:07;;;;;;;6.50;3.55;;;;;;;20.48;54.57;100175.38;5071691;28;20484;-59
2023/04/24 08:49:37;;;;;;;5.60;3.17;;;;;;;20.47;54.53;100177.22;5071465;28;20052;-53
2023/04/24 08:52:05;;;;;;;5.18;3.00;;;;;;;20.48;54.37;100172.69;5071906;28;20409;-54
2023/04/24 08:54:36;;;;;;;5.05;2.80;;;;;;;20.48;54.78;100176.25;5072131;28;20048;-55
2023/04/24 08:57:03;;;;;;;4.57;2.83;;;;;;;20.50;55.12;100186.88;5071787;28;20074;-54
2023/04/24 08:59:31;;;;;;;3.97;2.55;;;;;;;20.51;55.32;100187.69;5072071;28;20052;-60
2023/04/24 09:02:00;;;;;;;5.97;2.85;;;;;;;20.52;55.37;100195.59;5075142;28;20045;-59
2023/04/24 09:04:28;;;;;;;3.72;2.97;;;;;;;20.54;59.31;100196.31;5075334;28;20044;-60
2023/04/24 09:06:57;;;;;;;5.07;3.20;;;;;;;20.53;57.70;100197.28;5075124;28;20045;-60
2023/04/24 09:09:25;;;;;;;4.05;2.45;;;;;;;20.53;56.67;100199.13;5075163;28;20045;-54
2023/04/24 09:11:57;;;;;;;4.55;2.55;;;;;;;20.50;58.29;100200.31;5065288;28;20395;-53
2023/04/24 09:14:24;;;;;;;4.28;2.78;;;;;;;20.48;58.05;100196.88;5055838;28;20052;-51
2023/04/24 09:16:52;;;;;;;4.88;3.10;;;;;;;20.46;59.19;100201.59;5055192;28;20044;-52
2023/04/24 09:19:21;;;;;;;4.50;2.53;;;;;;;20.44;59.35;100209.78;5055418;28;20052;-60
2023/04/24 09:21:48;;;;;;;4.28;2.60;;;;;;;20.43;59.81;100207.25;5065360;28;20048;-60
2023/04/24 09:24:18;;;;;;;4.15;2.85;;;;;;;20.43;60.12;100218.03;5075103;28;20040;-60
2023/04/24 09:26:45;;;;;;;4.97;2.80;;;;;;;20.41;59.50;100220.00;5070478;28;20506;-60
2023/04/24 09:29:17;;;;;;;5.50;3.28;;;;;;;20.39;59.98;100212.09;5054078;28;20056;-59
2023/04/24 09:31:45;;;;;;;5.63;3.15;;;;;;;20.39;59.67;100217.47;5055105;28;20040;-53
2023/04/24 09:34:13;;;;;;;4.80;3.40;;;;;;;20.39;60.29;100222.00;5055517;28;20391;-54
2023/04/24 09:36:42;;;;;;;5.50;3.20;;;;;;;20.36;59.73;100215.09;5055113;28;20049;-51
2023/04/24 09:39:15;;;;;;;4.53;3.35;;;;;;;20.35;60.69;100216.09;5054913;28;20491;-60
2023/04/24 09:41:56;;;;;;;5.22;3.65;;;;;;;20.36;60.96;100219.63;5055078;28;20048;-60
2023/04/24 09:44:26;;;;;;;5.40;3.60;;;;;;;20.35;61.13;100216.09;5055169;28;20041;-60
2023/04/24 09:46:58;;;;;;;6.25;3.85;;;;;;;20.35;60.07;100215.25;5064029;28;20383;-60
2023/04/24 09:49:32;;;;;;;6.60;3.05;;;;;;;20.35;61.33;100220.63;5073910;28;20052;-60
2023/04/24 09:52:08;;;;;;;4.40;3.63;;;;;;;20.36;61.23;100217.78;5074563;28;20055;-60
2023/04/24 09:54:36;;;;;;;5.07;2.95;;;;;;;20.36;60.85;100216.94;5074611;28;20048;-59
2023/04/24 09:57:04;;;;;;;6.65;4.35;;;;;;;20.37;61.29;100213.25;5074207;28;20049;-59
2023/04/24 09:59:32;;;;;;;6.70;3.15;;;;;;;20.35;59.59;100202.66;5074460;28;20053;-54
2023/04/24 10:02:01;;;;;;;4.53;3.47;;;;;;;20.38;60.99;100194.28;5074425;28;20056;-54
2023/04/24 10:04:29;;;;;;;4.78;3.20;;;;;;;20.42;60.00;100192.13;5074748;28;20045;-54
2023/04/24 10:06:57;;;;;;;4.15;3.05;;;;;;;20.43;61.30;100186.59;5073814;28;20052;-52
2023/04/24 10:09:26;;;;;;;5.13;2.92;;;;;;;20.46;61.54;100193.53;5074329;28;20056;-57
2023/04/24 10:11:57;;;;;;;4.70;3.35;;;;;;;20.43;59.54;100180.38;5063441;28;20041;-57
2023/04/24 10:14:25;;;;;;;4.75;3.47;;;;;;;20.45;60.56;100186.44;5054301;28;20052;-57
2023/04/24 10:16:54;;;;;;;5.47;3.08;;;;;;;20.47;60.13;100184.44;5053873;28;20056;-58
2023/04/24 10:19:25;;;;;;;3.38;2.53;;;;;;;20.47;61.17;100190.66;5054394;28;20080;-54
2023/04/24 10:21:54;;;;;;;5.10;2.88;;;;;;;20.47;60.44;100181.75;5054532;28;20044;-54
2023/04/24 10:24:21;;;;;;;6.18;3.13;;;;;;;20.50;58.00;100189.56;5054033;28;20061;-55
2023/04/24 10:26:49;;;;;;;4.90;2.72;;;;;;;20.52;61.59;100192.06;5053983;28;20391;-54
2023/04/24 10:29:18;;;;;;;5.32;3.08;;;;;;;20.51;60.46;100196.63;5035471;28;20037;-55
2023/04/24 10:31:46;;;;;;;4.97;3.05;;;;;;;20.51;61.18;100188.53;5038182;28;20060;-56
2023/04/24 10:34:17;;;;;;;4.10;3.38;;;;;;;20.50;57.74;100192.25;5053801;28;20049;-55
2023/04/24 10:36:51;;;;;;;4.80;3.10;;;;;;;20.52;59.86;100192.91;5057831;28;20493;-55
2023/04/24 10:39:22;;;;;;;3.78;2.72;;;;;;;20.53;60.55;100186.53;5073911;28;20394;-58
2023/04/24 10:41:57;;;;;;;6.20;3.37;;;;;;;20.52;60.54;100181.31;5073528;28;20047;-58
2023/04/24 10:44:25;;;;;;;4.10;2.60;;;;;;;20.51;60.78;100183.16;5074026;28;20687;-60
2023/04/24 10:46:55;;;;;;;4.93;2.30;;;;;;;20.52;60.57;100184.00;5072864;28;20048;-58
2023/04/24 10:49:30;;;;;;;4.95;2.65;;;;;;;20.51;60.59;100177.78;5073341;28;20048;-55
2023/04/24 10:52:06;;;;;;;3.75;2.70;;;;;;;20.52;60.22;100168.72;5073624;28;20044;-54
2023/04/24 10:54:40;;;;;;;4.65;2.47;;;;;;;20.52;59.72;100176.78;5071851;28;20055;-55
2023/04/24 10:57:22;;;;;;;5.03;2.60;;;;;;;20.53;60.59;100170.41;5072990;28;20058;-55
2023/04/24 11:00:13;;;;;;;4.07;2.78;;;;;;;20.53;61.00;100167.72;5072555;28;20056;-54
2023/04/24 11:02:48;;;;;;;4.10;2.50;;;;;;;20.54;60.77;100168.53;5073640;28;20060;-54
2023/04/24 11:05:20;;;;;;;4.50;2.33;;;;;;;20.54;60.90;100171.22;5073177;28;20049;-53
2023/04/24 11:08:10;;;;;;;3.45;2.60;;;;;;;20.52;59.79;100168.72;5073127;28;20045;-55
2023/04/24 11:10:39;;;;;;;3.15;2.30;;;;;;;20.52;60.39;100166.03;5072008;28;20418;-58
2023/04/24 11:13:07;;;;;;;3.70;2.50;;;;;;;20.54;59.25;100171.22;5046969;28;20053;-58
2023/04/24 11:15:37;;;;;;;3.95;2.50;;;;;;;20.55;59.84;100164.88;5052796;28;20053;-59
2023/04/24 11:18:04;;;;;;;3.58;2.38;;;;;;;20.55;59.83;100162.19;5053563;28;20048;-58
2023/04/24 11:20:31;;;;;;;4.38;2.30;;;;;;;20.57;59.52;100161.00;5052960;28;20045;-57
2023/04/24 11:23:04;;;;;;;5.90;3.28;;;;;;;20.56;56.31;100158.50;5065570;28;20410;-58
2023/04/24 11:25:32;;;;;;;7.57;2.75;;;;;;;20.59;58.68;100161.72;5073379;28;20049;-58
2023/04/24 11:28:05;;;;;;;4.35;2.65;;;;;;;20.60;58.92;100163.41;5072725;28;20051;-58
2023/04/24 11:30:36;;;;;;;5.93;2.40;;;;;;;20.60;59.32;100167.94;5034023;28;20045;-54
2023/04/24 11:33:05;;;;;;;4.10;2.17;;;;;;;20.60;60.08;100154.50;5045817;28;20059;-58